Terminal Aerodrome Forecast
Issued by NWS Duluth, MN

Home | Current Version | Previous Version | Text Only | Print | Product List | Glossary On
Versions: 1 2 3 4 5 6 7 8 9 10 11 12 13 14 15 16 17 18 19 20 21 22 23 24 25
775
FTUS43 KDLH 221739
TAFDLH
TAF
KDLH 221739Z 2218/2318 30005KT P6SM OVC004
     FM230300 30005KT 1/2SM -DZ FG OVC001
     FM231200 28004KT 1 1/2SM BR OVC004=

USA.gov is the U.S. government's official web portal to all federal, state and local government web resources and services.